Bellingham, Massachusetts
Current Conditions -  °F | °C
As of 4:35 AM on Monday 24 Nov 2014 (Local Time) from KSFZ Reporting Station
Overcast Overcast  
Wind Chill: 50°   Ceiling: 200
Heat Index: 50°   Visibility: 2mi
Dew Point: 45°   Wind: 9mph
Humidity: 82%   Direction: 130°SE
Pressure: 29.93"   Gusts: NA
Location:  42.09°N, 71.47°W
Report Text: KSFZ 240935Z 13008KT 2SM OVC002 10/07 A2993 RMK AO1 P0001
Loading
Personal Weather Stations






























Interactive Weather Map New forecast layout! Learn more

10-Day Weather Forecast

Advertisements
Track Severe Weather on mobile